createdAt,value
2018-07-20T00:04:27.988Z,16.89
2018-07-20T00:14:28.103Z,16.96
2018-07-20T00:24:27.991Z,17.15
2018-07-20T00:34:28.017Z,17.23
2018-07-20T00:44:29.052Z,17.32
2018-07-20T00:54:27.973Z,17.11
2018-07-20T01:04:28.050Z,17.06
2018-07-20T01:14:28.034Z,16.9
2018-07-20T01:24:28.107Z,16.78
2018-07-20T01:34:28.027Z,16.63
2018-07-20T01:44:28.083Z,16.67
2018-07-20T01:54:28.080Z,16.63
2018-07-20T02:04:28.150Z,16.33
2018-07-20T02:14:28.096Z,16.22
2018-07-20T02:24:28.168Z,16.31
2018-07-20T02:34:28.099Z,16.41
2018-07-20T02:44:28.069Z,16.56
2018-07-20T02:54:28.131Z,16.59
2018-07-20T03:04:28.112Z,16.6
2018-07-20T03:14:28.186Z,16.53
2018-07-20T03:24:28.225Z,16.41
2018-07-20T03:34:28.213Z,16.49
2018-07-20T03:44:28.150Z,16.41
2018-07-20T03:54:28.221Z,16.38
2018-07-20T04:04:29.165Z,16.37
2018-07-20T04:14:28.247Z,16.23
2018-07-20T04:24:28.162Z,16.12
2018-07-20T04:34:28.258Z,16.26
2018-07-20T04:44:28.196Z,16.31
2018-07-20T04:54:28.268Z,16.31
2018-07-20T05:04:29.929Z,16.68
2018-07-20T05:14:28.292Z,17.1
2018-07-20T05:24:32.584Z,17.59
2018-07-20T05:34:28.318Z,18.07
2018-07-20T05:44:28.322Z,18.55
2018-07-20T05:54:28.299Z,19.05
2018-07-20T06:04:28.325Z,19.73
2018-07-20T06:14:28.351Z,20.61
2018-07-20T06:24:28.441Z,21.63
2018-07-20T06:34:28.354Z,24.54
2018-07-20T06:44:28.268Z,26.24
2018-07-20T06:54:28.331Z,28.11
2018-07-20T07:04:28.241Z,30.05
2018-07-20T07:14:28.249Z,32.06
2018-07-20T07:24:28.279Z,33.1
2018-07-20T07:34:28.414Z,35.14
2018-07-20T07:44:28.309Z,36.17
2018-07-20T07:54:28.541Z,37.31
2018-07-20T08:04:28.264Z,38.75
2018-07-20T08:14:28.277Z,39.3
2018-07-20T08:24:28.305Z,40.07
2018-07-20T08:34:28.323Z,39.99
2018-07-20T08:44:28.264Z,39.47
2018-07-20T08:54:28.307Z,39.96
2018-07-20T09:04:28.282Z,40.47
2018-07-20T09:14:28.321Z,37.41
2018-07-20T09:24:29.364Z,33.53
2018-07-20T09:34:28.308Z,32.2
2018-07-20T09:44:30.514Z,31.3
2018-07-20T09:54:28.329Z,30.74
2018-07-20T10:04:28.307Z,30.49
2018-07-20T10:14:34.413Z,30.53
2018-07-20T10:24:32.251Z,30.12
2018-07-20T10:34:30.411Z,30.45
2018-07-20T10:44:29.437Z,30.75
2018-07-20T10:54:28.400Z,30.83
2018-07-20T11:04:29.444Z,30.46
2018-07-20T11:14:29.343Z,30.59
2018-07-20T11:24:28.350Z,30.87
2018-07-20T11:34:28.381Z,31.12
2018-07-20T11:44:28.362Z,30.54
2018-07-20T11:54:28.344Z,30.75
2018-07-20T12:04:28.406Z,30.96
2018-07-20T12:14:28.381Z,31.09
2018-07-20T12:24:28.424Z,30.76
2018-07-20T12:34:28.401Z,30.69
2018-07-20T12:44:28.378Z,31.04
2018-07-20T12:54:28.363Z,30.98
2018-07-20T13:04:28.410Z,31.61
2018-07-20T13:14:28.468Z,32.14
2018-07-20T13:24:28.425Z,31.93
2018-07-20T13:34:29.472Z,31.82
2018-07-20T13:44:28.366Z,31.98
2018-07-20T13:54:28.388Z,32.21
2018-07-20T14:04:29.445Z,32.05
2018-07-20T14:14:29.445Z,31.73
2018-07-20T14:24:29.533Z,31.82
2018-07-20T14:34:28.414Z,31.96
2018-07-20T14:44:30.388Z,31.79
2018-07-20T14:54:28.396Z,31.3
2018-07-20T15:04:28.432Z,31.49
2018-07-20T15:14:28.402Z,31.8
2018-07-20T15:24:29.450Z,31.8
2018-07-20T15:34:29.514Z,31.68
2018-07-20T15:44:31.627Z,30.8
2018-07-20T15:54:29.795Z,30.33
2018-07-20T16:04:32.051Z,30.12
2018-07-20T16:14:28.494Z,29.9
2018-07-20T16:24:28.435Z,30.24
2018-07-20T16:34:31.312Z,30.29
2018-07-20T16:44:28.520Z,30.33
2018-07-20T16:54:28.426Z,30.59
2018-07-20T17:04:29.542Z,30.81
2018-07-20T17:14:28.562Z,30.8
2018-07-20T17:24:28.516Z,30.72
2018-07-20T17:34:28.498Z,30.47
2018-07-20T17:44:28.481Z,30.07
2018-07-20T17:54:28.631Z,29.66
2018-07-20T18:04:28.635Z,29.34
2018-07-20T18:14:28.620Z,29.13
2018-07-20T18:24:28.552Z,28.65
2018-07-20T18:34:28.493Z,28.36
2018-07-20T18:44:28.489Z,27.96
2018-07-20T18:54:28.467Z,27.46
2018-07-20T19:04:28.575Z,27.04
2018-07-20T19:14:28.572Z,26.52
2018-07-20T19:24:28.633Z,26.02
2018-07-20T19:34:28.580Z,25.77
2018-07-20T19:44:28.756Z,25.52
2018-07-20T19:54:28.557Z,25.38
2018-07-20T20:04:28.601Z,25.16
2018-07-20T20:14:28.710Z,25.17
2018-07-20T20:44:33.265Z,24.83
2018-07-20T21:14:42.119Z,24.35
2018-07-20T21:54:30.564Z,23.64
2018-07-20T22:04:46.039Z,23.42
2018-07-20T22:14:42.724Z,23.15
